sensor_id;sensor_type;location;lat;lon;timestamp;pressure;altitude;pressure_sealevel;temperature;humidity
73671;BME280;61968;48.178;11.566;2022-12-13T00:00:22;95075.19;;;-4.17;37.17
73671;BME280;61968;48.178;11.566;2022-12-13T00:02:48;95076.63;;;-4.22;37.13
73671;BME280;61968;48.178;11.566;2022-12-13T00:05:15;95079.50;;;-4.34;37.14
73671;BME280;61968;48.178;11.566;2022-12-13T00:07:41;95083.81;;;-4.34;36.84
73671;BME280;61968;48.178;11.566;2022-12-13T00:10:08;95080.91;;;-4.39;37.09
73671;BME280;61968;48.178;11.566;2022-12-13T00:12:35;95072.19;;;-4.38;37.53
73671;BME280;61968;48.178;11.566;2022-12-13T00:15:02;95076.19;;;-4.44;37.12
73671;BME280;61968;48.178;11.566;2022-12-13T00:17:32;95080.69;;;-4.46;37.13
73671;BME280;61968;48.178;11.566;2022-12-13T00:19:59;95077.66;;;-4.41;37.05
73671;BME280;61968;48.178;11.566;2022-12-13T00:22:25;95071.69;;;-4.42;37.31
73671;BME280;61968;48.178;11.566;2022-12-13T00:24:53;95070.66;;;-4.49;37.37
73671;BME280;61968;48.178;11.566;2022-12-13T00:27:19;95075.22;;;-4.43;37.71
73671;BME280;61968;48.178;11.566;2022-12-13T00:29:46;95069.25;;;-4.43;37.18
73671;BME280;61968;48.178;11.566;2022-12-13T00:32:12;95069.75;;;-4.40;37.25
73671;BME280;61968;48.178;11.566;2022-12-13T00:34:40;95067.34;;;-4.41;37.36
73671;BME280;61968;48.178;11.566;2022-12-13T00:37:07;95068.25;;;-4.51;37.16
73671;BME280;61968;48.178;11.566;2022-12-13T00:39:33;95059.06;;;-4.53;37.24
73671;BME280;61968;48.178;11.566;2022-12-13T00:42:00;95064.69;;;-4.58;37.36
73671;BME280;61968;48.178;11.566;2022-12-13T00:44:26;95059.53;;;-4.58;37.65
73671;BME280;61968;48.178;11.566;2022-12-13T00:46:53;95057.75;;;-4.57;37.74
73671;BME280;61968;48.178;11.566;2022-12-13T00:49:20;95059.81;;;-4.61;37.48
73671;BME280;61968;48.178;11.566;2022-12-13T00:51:48;95059.00;;;-4.61;37.99
73671;BME280;61968;48.178;11.566;2022-12-13T00:54:15;95054.66;;;-4.61;37.75
73671;BME280;61968;48.178;11.566;2022-12-13T00:56:42;95054.66;;;-4.61;37.85
73671;BME280;61968;48.178;11.566;2022-12-13T00:59:12;95059.66;;;-4.59;37.57
73671;BME280;61968;48.178;11.566;2022-12-13T01:01:39;95056.28;;;-4.60;37.33
73671;BME280;61968;48.178;11.566;2022-12-13T01:04:06;95063.09;;;-4.51;37.50
73671;BME280;61968;48.178;11.566;2022-12-13T01:06:33;95057.94;;;-4.51;37.54
73671;BME280;61968;48.178;11.566;2022-12-13T01:09:03;95053.53;;;-4.58;37.73
73671;BME280;61968;48.178;11.566;2022-12-13T01:11:30;95057.25;;;-4.61;37.75
73671;BME280;61968;48.178;11.566;2022-12-13T01:13:57;95056.09;;;-4.66;37.69
73671;BME280;61968;48.178;11.566;2022-12-13T01:16:23;95056.53;;;-4.71;37.46
73671;BME280;61968;48.178;11.566;2022-12-13T01:18:50;95045.25;;;-4.70;37.65
73671;BME280;61968;48.178;11.566;2022-12-13T01:21:18;95047.00;;;-4.71;37.70
73671;BME280;61968;48.178;11.566;2022-12-13T01:23:45;95049.44;;;-4.69;37.66
73671;BME280;61968;48.178;11.566;2022-12-13T01:26:16;95051.38;;;-4.71;37.43
73671;BME280;61968;48.178;11.566;2022-12-13T01:28:43;95037.00;;;-4.74;37.85
73671;BME280;61968;48.178;11.566;2022-12-13T01:31:12;95041.34;;;-4.74;38.00
73671;BME280;61968;48.178;11.566;2022-12-13T01:33:40;95042.53;;;-4.68;37.66
73671;BME280;61968;48.178;11.566;2022-12-13T01:36:09;95038.34;;;-4.69;37.44
73671;BME280;61968;48.178;11.566;2022-12-13T01:38:36;95039.75;;;-4.75;37.12
73671;BME280;61968;48.178;11.566;2022-12-13T01:41:03;95040.03;;;-4.78;37.20
73671;BME280;61968;48.178;11.566;2022-12-13T01:43:53;95032.19;;;-4.95;37.72
73671;BME280;61968;48.178;11.566;2022-12-13T01:46:20;95025.78;;;-4.90;37.80
73671;BME280;61968;48.178;11.566;2022-12-13T01:48:50;95025.97;;;-4.84;37.88
73671;BME280;61968;48.178;11.566;2022-12-13T01:51:19;95021.13;;;-4.87;37.64
73671;BME280;61968;48.178;11.566;2022-12-13T01:53:47;95018.56;;;-4.87;37.72
73671;BME280;61968;48.178;11.566;2022-12-13T01:56:19;95015.47;;;-4.90;37.40
73671;BME280;61968;48.178;11.566;2022-12-13T01:58:48;95008.47;;;-4.98;37.80
73671;BME280;61968;48.178;11.566;2022-12-13T02:01:17;95006.88;;;-4.99;37.50
73671;BME280;61968;48.178;11.566;2022-12-13T02:03:44;95008.34;;;-4.97;37.57
73671;BME280;61968;48.178;11.566;2022-12-13T02:06:15;95012.13;;;-5.09;37.88
73671;BME280;61968;48.178;11.566;2022-12-13T02:08:43;95005.63;;;-5.13;37.76
73671;BME280;61968;48.178;11.566;2022-12-13T02:11:11;95011.63;;;-5.12;37.85
73671;BME280;61968;48.178;11.566;2022-12-13T02:13:38;95007.78;;;-5.08;37.87
73671;BME280;61968;48.178;11.566;2022-12-13T02:16:10;95004.09;;;-5.06;37.63
73671;BME280;61968;48.178;11.566;2022-12-13T02:18:52;95003.06;;;-5.13;37.77
73671;BME280;61968;48.178;11.566;2022-12-13T02:21:31;94997.88;;;-5.21;37.76
73671;BME280;61968;48.178;11.566;2022-12-13T02:24:21;94999.91;;;-5.25;37.82
73671;BME280;61968;48.178;11.566;2022-12-13T02:26:55;94992.72;;;-5.21;37.75
73671;BME280;61968;48.178;11.566;2022-12-13T02:29:44;94980.72;;;-5.30;37.81
73671;BME280;61968;48.178;11.566;2022-12-13T02:32:26;94984.41;;;-5.33;38.12
73671;BME280;61968;48.178;11.566;2022-12-13T02:35:00;94977.19;;;-5.29;37.67
73671;BME280;61968;48.178;11.566;2022-12-13T02:37:34;94970.03;;;-5.18;37.93
73671;BME280;61968;48.178;11.566;2022-12-13T02:40:08;94973.97;;;-5.05;37.30
73671;BME280;61968;48.178;11.566;2022-12-13T02:42:45;94969.66;;;-5.23;37.56
73671;BME280;61968;48.178;11.566;2022-12-13T02:45:16;94971.47;;;-5.41;38.23
73671;BME280;61968;48.178;11.566;2022-12-13T02:47:46;94969.47;;;-5.47;37.74
73671;BME280;61968;48.178;11.566;2022-12-13T02:50:14;94975.13;;;-5.44;38.12
73671;BME280;61968;48.178;11.566;2022-12-13T02:52:41;94960.72;;;-5.36;38.04
73671;BME280;61968;48.178;11.566;2022-12-13T02:55:12;94958.66;;;-5.33;37.86
73671;BME280;61968;48.178;11.566;2022-12-13T02:57:41;94949.44;;;-5.35;37.82
73671;BME280;61968;48.178;11.566;2022-12-13T03:00:12;94944.44;;;-5.37;37.85
73671;BME280;61968;48.178;11.566;2022-12-13T03:02:47;94944.09;;;-5.42;38.01
73671;BME280;61968;48.178;11.566;2022-12-13T03:05:26;94938.97;;;-5.34;37.88
73671;BME280;61968;48.178;11.566;2022-12-13T03:08:20;94933.81;;;-5.34;37.80
73671;BME280;61968;48.178;11.566;2022-12-13T03:10:54;94939.44;;;-5.38;37.73
73671;BME280;61968;48.178;11.566;2022-12-13T03:13:27;94942.91;;;-5.48;37.80
73671;BME280;61968;48.178;11.566;2022-12-13T03:16:08;94931.00;;;-5.49;37.98
73671;BME280;61968;48.178;11.566;2022-12-13T03:18:38;94934.09;;;-5.45;38.07
73671;BME280;61968;48.178;11.566;2022-12-13T03:21:08;94928.84;;;-5.35;37.25
73671;BME280;61968;48.178;11.566;2022-12-13T03:23:35;94942.16;;;-5.40;37.75
73671;BME280;61968;48.178;11.566;2022-12-13T03:26:06;94944.81;;;-5.50;37.53
73671;BME280;61968;48.178;11.566;2022-12-13T03:28:34;94941.59;;;-5.52;37.99
73671;BME280;61968;48.178;11.566;2022-12-13T03:31:01;94947.91;;;-5.46;37.69
73671;BME280;61968;48.178;11.566;2022-12-13T03:33:28;94948.22;;;-5.49;37.48
73671;BME280;61968;48.178;11.566;2022-12-13T03:35:56;94946.91;;;-5.53;37.38
73671;BME280;61968;48.178;11.566;2022-12-13T03:38:23;94946.91;;;-5.53;37.74
73671;BME280;61968;48.178;11.566;2022-12-13T03:40:52;94953.44;;;-5.59;37.56
73671;BME280;61968;48.178;11.566;2022-12-13T03:43:19;94944.13;;;-5.60;37.36
73671;BME280;61968;48.178;11.566;2022-12-13T03:45:46;94949.41;;;-5.62;37.50
73671;BME280;61968;48.178;11.566;2022-12-13T03:48:12;94940.19;;;-5.64;37.70
73671;BME280;61968;48.178;11.566;2022-12-13T03:50:39;94943.66;;;-5.73;37.59
73671;BME280;61968;48.178;11.566;2022-12-13T03:53:07;94939.69;;;-5.68;37.71
73671;BME280;61968;48.178;11.566;2022-12-13T03:55:34;94930.78;;;-5.73;37.64
73671;BME280;61968;48.178;11.566;2022-12-13T03:58:00;94932.22;;;-5.79;37.49
73671;BME280;61968;48.178;11.566;2022-12-13T04:00:27;94923.16;;;-5.65;37.31
73671;BME280;61968;48.178;11.566;2022-12-13T04:02:53;94917.78;;;-5.72;37.54
73671;BME280;61968;48.178;11.566;2022-12-13T04:05:20;94918.78;;;-5.65;37.41
73671;BME280;61968;48.178;11.566;2022-12-13T04:07:47;94922.03;;;-5.63;37.28
73671;BME280;61968;48.178;11.566;2022-12-13T04:10:15;94920.66;;;-5.75;37.35
73671;BME280;61968;48.178;11.566;2022-12-13T04:12:41;94913.22;;;-5.78;37.50
73671;BME280;61968;48.178;11.566;2022-12-13T04:15:26;94922.28;;;-5.74;37.68
73671;BME280;61968;48.178;11.566;2022-12-13T04:17:52;94913.59;;;-5.73;37.23
73671;BME280;61968;48.178;11.566;2022-12-13T04:20:19;94913.22;;;-5.78;37.37
73671;BME280;61968;48.178;11.566;2022-12-13T04:22:45;94917.72;;;-5.80;37.53
73671;BME280;61968;48.178;11.566;2022-12-13T04:25:12;94917.78;;;-5.72;37.39
73671;BME280;61968;48.178;11.566;2022-12-13T04:27:40;94919.06;;;-5.76;37.47
73671;BME280;61968;48.178;11.566;2022-12-13T04:30:07;94919.34;;;-5.79;37.39
73671;BME280;61968;48.178;11.566;2022-12-13T04:32:34;94922.22;;;-5.82;37.48
73671;BME280;61968;48.178;11.566;2022-12-13T04:35:01;94925.94;;;-5.76;37.70
73671;BME280;61968;48.178;11.566;2022-12-13T04:37:27;94912.25;;;-5.59;37.32
73671;BME280;61968;48.178;11.566;2022-12-13T04:39:54;94913.41;;;-5.53;36.65
73671;BME280;61968;48.178;11.566;2022-12-13T04:42:20;94912.75;;;-5.55;36.64
73671;BME280;61968;48.178;11.566;2022-12-13T04:44:48;94910.25;;;-5.65;37.07
73671;BME280;61968;48.178;11.566;2022-12-13T04:47:15;94916.97;;;-5.72;37.21
73671;BME280;61968;48.178;11.566;2022-12-13T04:49:42;94917.88;;;-5.81;37.51
73671;BME280;61968;48.178;11.566;2022-12-13T04:52:09;94912.94;;;-5.75;37.36
73671;BME280;61968;48.178;11.566;2022-12-13T04:54:36;94914.50;;;-5.82;37.20
73671;BME280;61968;48.178;11.566;2022-12-13T04:57:04;94916.31;;;-5.92;37.53
73671;BME280;61968;48.178;11.566;2022-12-13T04:59:32;94906.63;;;-5.98;37.48
73671;BME280;61968;48.178;11.566;2022-12-13T05:02:00;94902.88;;;-6.04;37.88
73671;BME280;61968;48.178;11.566;2022-12-13T05:04:27;94902.28;;;-6.16;38.12
73671;BME280;61968;48.178;11.566;2022-12-13T05:06:53;94908.38;;;-6.17;37.94
73671;BME280;61968;48.178;11.566;2022-12-13T05:09:20;94907.81;;;-6.11;38.02
73671;BME280;61968;48.178;11.566;2022-12-13T05:11:46;94899.78;;;-6.07;37.61
73671;BME280;61968;48.178;11.566;2022-12-13T05:14:13;94902.66;;;-6.11;37.81
73671;BME280;61968;48.178;11.566;2022-12-13T05:16:40;94889.94;;;-6.12;37.84
73671;BME280;61968;48.178;11.566;2022-12-13T05:19:08;94883.47;;;-6.16;38.07
73671;BME280;61968;48.178;11.566;2022-12-13T05:21:34;94890.25;;;-6.15;37.84
73671;BME280;61968;48.178;11.566;2022-12-13T05:24:01;94886.34;;;-6.19;37.72
73671;BME280;61968;48.178;11.566;2022-12-13T05:26:28;94882.97;;;-6.20;38.18
73671;BME280;61968;48.178;11.566;2022-12-13T05:28:54;94877.00;;;-6.20;37.92
73671;BME280;61968;48.178;11.566;2022-12-13T05:31:22;94883.75;;;-6.19;37.58
73671;BME280;61968;48.178;11.566;2022-12-13T05:33:48;94878.03;;;-6.31;38.33
73671;BME280;61968;48.178;11.566;2022-12-13T05:36:16;94878.31;;;-6.34;37.89
73671;BME280;61968;48.178;11.566;2022-12-13T05:38:43;94886.53;;;-6.31;38.23
73671;BME280;61968;48.178;11.566;2022-12-13T05:41:10;94883.03;;;-6.29;38.13
73671;BME280;61968;48.178;11.566;2022-12-13T05:43:40;94886.50;;;-6.21;38.42
73671;BME280;61968;48.178;11.566;2022-12-13T05:46:07;94882.97;;;-6.20;37.86
73671;BME280;61968;48.178;11.566;2022-12-13T05:48:33;94880.97;;;-6.26;37.95
73671;BME280;61968;48.178;11.566;2022-12-13T05:51:00;94887.66;;;-6.33;38.17
73671;BME280;61968;48.178;11.566;2022-12-13T05:53:28;94881.94;;;-6.27;37.89
73671;BME280;61968;48.178;11.566;2022-12-13T05:55:58;94888.19;;;-6.29;38.42
73671;BME280;61968;48.178;11.566;2022-12-13T05:58:24;94883.25;;;-6.23;38.14
73671;BME280;61968;48.178;11.566;2022-12-13T06:00:51;94889.66;;;-6.27;37.60
73671;BME280;61968;48.178;11.566;2022-12-13T06:03:17;94892.22;;;-6.27;37.80
73671;BME280;61968;48.178;11.566;2022-12-13T06:05:44;94884.56;;;-6.37;37.98
73671;BME280;61968;48.178;11.566;2022-12-13T06:08:11;94888.84;;;-6.45;38.12
73671;BME280;61968;48.178;11.566;2022-12-13T06:10:38;94888.66;;;-6.44;38.50
73671;BME280;61968;48.178;11.566;2022-12-13T06:13:05;94878.69;;;-6.47;37.99
73671;BME280;61968;48.178;11.566;2022-12-13T06:15:31;94888.75;;;-6.53;38.28
73671;BME280;61968;48.178;11.566;2022-12-13T06:17:58;94889.03;;;-6.57;38.19
73671;BME280;61968;48.178;11.566;2022-12-13T06:20:25;94890.50;;;-6.54;38.34
73671;BME280;61968;48.178;11.566;2022-12-13T06:22:52;94896.84;;;-6.48;38.13
73671;BME280;61968;48.178;11.566;2022-12-13T06:25:18;94900.63;;;-6.52;38.19
73671;BME280;61968;48.178;11.566;2022-12-13T06:27:46;94898.22;;;-6.54;38.32
73671;BME280;61968;48.178;11.566;2022-12-13T06:30:13;94895.13;;;-6.58;38.24
73671;BME280;61968;48.178;11.566;2022-12-13T06:32:40;94890.41;;;-6.62;38.24
73671;BME280;61968;48.178;11.566;2022-12-13T06:35:07;94893.28;;;-6.65;38.44
73671;BME280;61968;48.178;11.566;2022-12-13T06:37:34;94900.56;;;-6.61;38.38
73671;BME280;61968;48.178;11.566;2022-12-13T06:40:00;94904.75;;;-6.60;38.39
73671;BME280;61968;48.178;11.566;2022-12-13T06:42:27;94908.06;;;-6.49;38.08
73671;BME280;61968;48.178;11.566;2022-12-13T06:44:55;94910.34;;;-6.46;37.89
73671;BME280;61968;48.178;11.566;2022-12-13T06:47:21;94904.69;;;-6.50;37.84
73671;BME280;61968;48.178;11.566;2022-12-13T06:49:48;94907.56;;;-6.53;38.41
73671;BME280;61968;48.178;11.566;2022-12-13T06:52:14;94902.28;;;-6.51;38.08
73671;BME280;61968;48.178;11.566;2022-12-13T06:54:41;94909.78;;;-6.68;37.84
73671;BME280;61968;48.178;11.566;2022-12-13T06:57:10;94904.41;;;-6.74;37.93
73671;BME280;61968;48.178;11.566;2022-12-13T06:59:36;94912.84;;;-6.82;37.88
73671;BME280;61968;48.178;11.566;2022-12-13T07:02:05;94910.41;;;-6.84;38.09
73671;BME280;61968;48.178;11.566;2022-12-13T07:04:32;94916.88;;;-6.80;37.91
73671;BME280;61968;48.178;11.566;2022-12-13T07:06:58;94919.31;;;-6.78;37.48
73671;BME280;61968;48.178;11.566;2022-12-13T07:09:25;94919.78;;;-6.92;37.59
73671;BME280;61968;48.178;11.566;2022-12-13T07:11:51;94912.25;;;-6.76;37.69
73671;BME280;61968;48.178;11.566;2022-12-13T07:14:18;94919.16;;;-6.77;37.08
73671;BME280;61968;48.178;11.566;2022-12-13T07:16:45;94921.28;;;-6.90;37.21
73671;BME280;61968;48.178;11.566;2022-12-13T07:19:13;94918.31;;;-6.95;37.77
73671;BME280;61968;48.178;11.566;2022-12-13T07:21:39;94920.47;;;-6.90;37.85
73671;BME280;61968;48.178;11.566;2022-12-13T07:24:06;94916.41;;;-6.93;37.47
73671;BME280;61968;48.178;11.566;2022-12-13T07:26:32;94922.41;;;-7.02;37.73
73671;BME280;61968;48.178;11.566;2022-12-13T07:28:59;94933.22;;;-6.98;38.54
73671;BME280;61968;48.178;11.566;2022-12-13T07:31:25;94929.97;;;-6.73;38.09
73671;BME280;61968;48.178;11.566;2022-12-13T07:33:52;94929.31;;;-6.75;37.34
73671;BME280;61968;48.178;11.566;2022-12-13T07:36:21;94924.41;;;-6.96;40.30
73671;BME280;61968;48.178;11.566;2022-12-13T07:38:49;94918.13;;;-7.11;37.98
73671;BME280;61968;48.178;11.566;2022-12-13T07:41:16;94917.03;;;-7.18;38.60
73671;BME280;61968;48.178;11.566;2022-12-13T07:43:43;94924.53;;;-7.35;38.72
73671;BME280;61968;48.178;11.566;2022-12-13T07:46:09;94923.34;;;-7.50;39.08
73671;BME280;61968;48.178;11.566;2022-12-13T07:48:36;94916.88;;;-7.54;39.48
73671;BME280;61968;48.178;11.566;2022-12-13T07:51:03;94916.31;;;-7.58;39.35
73671;BME280;61968;48.178;11.566;2022-12-13T07:53:33;94914.31;;;-7.54;39.94
73671;BME280;61968;48.178;11.566;2022-12-13T07:56:00;94921.47;;;-7.58;40.04
73671;BME280;61968;48.178;11.566;2022-12-13T07:58:27;94929.41;;;-7.41;39.79
73671;BME280;61968;48.178;11.566;2022-12-13T08:00:58;94931.44;;;-7.35;39.53
73671;BME280;61968;48.178;11.566;2022-12-13T08:03:25;94930.19;;;-7.31;39.51
73671;BME280;61968;48.178;11.566;2022-12-13T08:05:57;94927.88;;;-7.25;39.34
73671;BME280;61968;48.178;11.566;2022-12-13T08:08:24;94932.56;;;-7.10;39.10
73671;BME280;61968;48.178;11.566;2022-12-13T08:10:52;94935.66;;;-7.07;39.34
73671;BME280;61968;48.178;11.566;2022-12-13T08:13:19;94933.78;;;-7.05;39.02
73671;BME280;61968;48.178;11.566;2022-12-13T08:15:45;94933.78;;;-7.05;39.03
73671;BME280;61968;48.178;11.566;2022-12-13T08:18:12;94928.59;;;-6.95;39.21
73671;BME280;61968;48.178;11.566;2022-12-13T08:20:38;94920.59;;;-6.92;39.31
73671;BME280;61968;48.178;11.566;2022-12-13T08:23:05;94917.34;;;-6.84;39.36
73671;BME280;61968;48.178;11.566;2022-12-13T08:25:31;94915.22;;;-6.71;38.95
73671;BME280;61968;48.178;11.566;2022-12-13T08:27:59;94918.75;;;-6.72;39.32
73671;BME280;61968;48.178;11.566;2022-12-13T08:30:26;94914.38;;;-6.89;39.54
73671;BME280;61968;48.178;11.566;2022-12-13T08:32:52;94914.66;;;-6.92;40.01
73671;BME280;61968;48.178;11.566;2022-12-13T08:35:20;94910.66;;;-6.77;39.86
73671;BME280;61968;48.178;11.566;2022-12-13T08:37:46;94916.84;;;-6.70;39.94
73671;BME280;61968;48.178;11.566;2022-12-13T08:40:13;94920.25;;;-6.69;39.70
73671;BME280;61968;48.178;11.566;2022-12-13T08:42:39;94921.91;;;-6.78;39.92
73671;BME280;61968;48.178;11.566;2022-12-13T08:45:09;94923.38;;;-6.75;40.00
73671;BME280;61968;48.178;11.566;2022-12-13T08:47:35;94935.44;;;-6.58;39.90
73671;BME280;61968;48.178;11.566;2022-12-13T08:50:03;94935.78;;;-6.43;39.41
73671;BME280;61968;48.178;11.566;2022-12-13T08:52:30;94933.31;;;-6.63;39.95
73671;BME280;61968;48.178;11.566;2022-12-13T08:54:56;94936.28;;;-6.58;39.78
73671;BME280;61968;48.178;11.566;2022-12-13T08:57:23;94934.81;;;-6.60;40.20
73671;BME280;61968;48.178;11.566;2022-12-13T08:59:49;94941.13;;;-6.55;39.32
73671;BME280;61968;48.178;11.566;2022-12-13T09:02:17;94940.63;;;-6.40;39.32
73671;BME280;61968;48.178;11.566;2022-12-13T09:04:44;94937.03;;;-6.47;39.65
73671;BME280;61968;48.178;11.566;2022-12-13T09:07:10;94946.84;;;-6.61;40.05
73671;BME280;61968;48.178;11.566;2022-12-13T09:09:37;94947.47;;;-6.31;39.46
73671;BME280;61968;48.178;11.566;2022-12-13T09:12:04;94935.16;;;-6.10;38.76
73671;BME280;61968;48.178;11.566;2022-12-13T09:14:31;94932.44;;;-6.08;38.89
73671;BME280;61968;48.178;11.566;2022-12-13T09:16:57;94933.09;;;-6.24;39.40
73671;BME280;61968;48.178;11.566;2022-12-13T09:19:25;94930.81;;;-6.27;39.61
73671;BME280;61968;48.178;11.566;2022-12-13T09:21:52;94921.94;;;-6.15;39.71
73671;BME280;61968;48.178;11.566;2022-12-13T09:24:19;94922.88;;;-6.16;39.84
73671;BME280;61968;48.178;11.566;2022-12-13T09:26:45;94920.88;;;-6.04;39.46
73671;BME280;61968;48.178;11.566;2022-12-13T09:29:12;94922.66;;;-6.22;40.01
73671;BME280;61968;48.178;11.566;2022-12-13T09:31:40;94917.72;;;-6.16;39.96
73671;BME280;61968;48.178;11.566;2022-12-13T09:34:07;94932.56;;;-6.27;40.14
73671;BME280;61968;48.178;11.566;2022-12-13T09:36:35;94920.84;;;-6.12;40.13
73671;BME280;61968;48.178;11.566;2022-12-13T09:39:02;94929.28;;;-6.20;40.28
73671;BME280;61968;48.178;11.566;2022-12-13T09:41:31;94933.16;;;-6.16;40.31
73671;BME280;61968;48.178;11.566;2022-12-13T09:44:02;94919.69;;;-6.10;40.09
73671;BME280;61968;48.178;11.566;2022-12-13T09:46:31;94918.22;;;-5.94;39.89
73671;BME280;61968;48.178;11.566;2022-12-13T09:49:00;94906.50;;;-5.97;39.95
73671;BME280;61968;48.178;11.566;2022-12-13T09:51:30;94914.13;;;-5.87;39.64
73671;BME280;61968;48.178;11.566;2022-12-13T09:53:59;94910.00;;;-5.80;39.63
73671;BME280;61968;48.178;11.566;2022-12-13T09:56:26;94910.06;;;-5.72;39.45
73671;BME280;61968;48.178;11.566;2022-12-13T09:58:53;94906.53;;;-5.71;39.39
73671;BME280;61968;48.178;11.566;2022-12-13T10:01:21;94904.03;;;-5.80;39.87
73671;BME280;61968;48.178;11.566;2022-12-13T10:03:48;94905.91;;;-5.65;39.55
73671;BME280;61968;48.178;11.566;2022-12-13T10:06:17;94901.81;;;-5.57;39.31
73671;BME280;61968;48.178;11.566;2022-12-13T10:08:47;94901.94;;;-5.59;38.97
73671;BME280;61968;48.178;11.566;2022-12-13T10:11:17;94899.84;;;-5.64;39.28
73671;BME280;61968;48.178;11.566;2022-12-13T10:13:48;94898.34;;;-5.66;39.52
73671;BME280;61968;48.178;11.566;2022-12-13T10:16:18;94899.75;;;-5.72;39.73
73671;BME280;61968;48.178;11.566;2022-12-13T10:18:47;94887.00;;;-5.55;39.41
73671;BME280;61968;48.178;11.566;2022-12-13T10:21:16;94894.00;;;-5.66;39.30
73671;BME280;61968;48.178;11.566;2022-12-13T10:23:45;94892.00;;;-5.54;39.36
73671;BME280;61968;48.178;11.566;2022-12-13T10:26:12;94888.06;;;-5.66;39.16
73671;BME280;61968;48.178;11.566;2022-12-13T10:28:41;94886.00;;;-5.80;39.70
73671;BME280;61968;48.178;11.566;2022-12-13T10:31:08;94887.59;;;-5.88;39.87
73671;BME280;61968;48.178;11.566;2022-12-13T10:33:50;94886.63;;;-5.87;39.64
73671;BME280;61968;48.178;11.566;2022-12-13T10:36:31;94871.88;;;-5.76;39.50
73671;BME280;61968;48.178;11.566;2022-12-13T10:38:58;94872.13;;;-5.62;39.64
73671;BME280;61968;48.178;11.566;2022-12-13T10:41:27;94878.31;;;-5.54;39.29
73671;BME280;61968;48.178;11.566;2022-12-13T10:44:10;94868.66;;;-5.52;39.25
73671;BME280;61968;48.178;11.566;2022-12-13T10:46:39;94867.81;;;-5.35;39.16
73671;BME280;61968;48.178;11.566;2022-12-13T10:49:15;94865.09;;;-5.33;38.85
73671;BME280;61968;48.178;11.566;2022-12-13T10:51:42;94871.78;;;-5.41;39.15
73671;BME280;61968;48.178;11.566;2022-12-13T10:54:13;94862.19;;;-5.30;39.26
73671;BME280;61968;48.178;11.566;2022-12-13T10:56:45;94866.63;;;-5.14;38.85
73671;BME280;61968;48.178;11.566;2022-12-13T10:59:24;94870.63;;;-5.20;38.85
73671;BME280;61968;48.178;11.566;2022-12-13T11:01:52;94862.94;;;-5.12;38.89
73671;BME280;61968;48.178;11.566;2022-12-13T11:04:22;94861.22;;;-5.03;38.66
73671;BME280;61968;48.178;11.566;2022-12-13T11:06:50;94865.50;;;-5.12;38.78
73671;BME280;61968;48.178;11.566;2022-12-13T11:09:24;94858.41;;;-5.18;39.20
73671;BME280;61968;48.178;11.566;2022-12-13T11:11:52;94857.78;;;-5.12;39.12
73671;BME280;61968;48.178;11.566;2022-12-13T11:14:22;94863.13;;;-5.05;38.61
73671;BME280;61968;48.178;11.566;2022-12-13T11:16:53;94858.59;;;-5.11;38.99
73671;BME280;61968;48.178;11.566;2022-12-13T11:19:23;94855.44;;;-4.97;39.28
73671;BME280;61968;48.178;11.566;2022-12-13T11:21:51;94851.84;;;-5.04;39.18
73671;BME280;61968;48.178;11.566;2022-12-13T11:24:20;94851.56;;;-4.93;39.46
73671;BME280;61968;48.178;11.566;2022-12-13T11:26:51;94849.19;;;-4.78;39.21
73671;BME280;61968;48.178;11.566;2022-12-13T11:29:47;94860.19;;;-4.68;38.52
73671;BME280;61968;48.178;11.566;2022-12-13T11:32:24;94851.50;;;-4.59;38.42
73671;BME280;61968;48.178;11.566;2022-12-13T11:35:00;94841.19;;;-4.59;38.20
73671;BME280;61968;48.178;11.566;2022-12-13T11:37:40;94838.44;;;-4.49;37.93
73671;BME280;61968;48.178;11.566;2022-12-13T11:40:13;94825.91;;;-4.44;37.87
73671;BME280;61968;48.178;11.566;2022-12-13T11:42:44;94846.69;;;-4.37;38.25
73671;BME280;61968;48.178;11.566;2022-12-13T11:45:18;94838.66;;;-4.42;38.54
73671;BME280;61968;48.178;11.566;2022-12-13T11:47:47;94840.56;;;-4.44;37.48
73671;BME280;61968;48.178;11.566;2022-12-13T11:50:17;94828.78;;;-4.55;38.17
73671;BME280;61968;48.178;11.566;2022-12-13T11:52:48;94826.38;;;-4.57;38.30
73671;BME280;61968;48.178;11.566;2022-12-13T11:55:20;94832.81;;;-4.61;38.63
73671;BME280;61968;48.178;11.566;2022-12-13T11:57:53;94831.50;;;-4.65;38.12
73671;BME280;61968;48.178;11.566;2022-12-13T12:00:35;94837.66;;;-4.50;38.03
73671;BME280;61968;48.178;11.566;2022-12-13T12:03:14;94837.81;;;-4.43;37.32
73671;BME280;61968;48.178;11.566;2022-12-13T12:05:45;94835.41;;;-4.44;38.09
73671;BME280;61968;48.178;11.566;2022-12-13T12:08:19;94835.88;;;-4.49;38.13
73671;BME280;61968;48.178;11.566;2022-12-13T12:10:47;94835.56;;;-4.38;37.86
73671;BME280;61968;48.178;11.566;2022-12-13T12:13:21;94833.31;;;-4.41;37.70
73671;BME280;61968;48.178;11.566;2022-12-13T12:16:00;94822.53;;;-4.36;37.94
73671;BME280;61968;48.178;11.566;2022-12-13T12:18:31;94820.56;;;-4.34;37.40
73671;BME280;61968;48.178;11.566;2022-12-13T12:21:19;94823.47;;;-4.37;37.90
73671;BME280;61968;48.178;11.566;2022-12-13T12:24:02;94825.13;;;-4.36;37.50
73671;BME280;61968;48.178;11.566;2022-12-13T12:26:40;94827.22;;;-4.23;37.44
73671;BME280;61968;48.178;11.566;2022-12-13T12:29:32;94824.13;;;-4.19;37.45
73671;BME280;61968;48.178;11.566;2022-12-13T12:32:10;94823.34;;;-4.11;37.59
73671;BME280;61968;48.178;11.566;2022-12-13T12:34:48;94833.38;;;-4.00;36.63
73671;BME280;61968;48.178;11.566;2022-12-13T12:37:26;94819.31;;;-3.97;37.08
73671;BME280;61968;48.178;11.566;2022-12-13T12:40:05;94822.72;;;-3.97;37.38
73671;BME280;61968;48.178;11.566;2022-12-13T12:42:43;94819.00;;;-3.94;37.22
73671;BME280;61968;48.178;11.566;2022-12-13T12:45:23;94812.53;;;-4.07;37.02
73671;BME280;61968;48.178;11.566;2022-12-13T12:48:04;94823.19;;;-3.93;36.63
73671;BME280;61968;48.178;11.566;2022-12-13T12:50:43;94817.84;;;-4.08;36.94
73671;BME280;61968;48.178;11.566;2022-12-13T12:53:26;94815.75;;;-4.13;37.28
73671;BME280;61968;48.178;11.566;2022-12-13T12:56:01;94816.41;;;-4.11;37.32
73671;BME280;61968;48.178;11.566;2022-12-13T12:58:34;94817.88;;;-4.00;37.90
73671;BME280;61968;48.178;11.566;2022-12-13T13:01:12;94824.78;;;-3.92;37.73